Time;durP1;ratioP1;P1;durP2;ratioP2;P2;SDS_P1;SDS_P2;PMS_P1;PMS_P2;Temp;Humidity;BMP_temperature;BMP_pressure;BME280_temperature;BME280_humidity;BME280_pressure;Samples;Min_cycle;Max_cycle;Signal;HPM_P1;HPM_P2
2022/06/05 00:02:22;;;;;;;0.80;0.35;;;;;;;;;;6206555;23;20008;-54
2022/06/05 00:04:57;;;;;;;0.32;0.32;;;;;;;;;;6241217;23;20015;-54
2022/06/05 00:07:42;;;;;;;0.00;0.00;;;;;;;;;;6236532;23;20109;-54
2022/06/05 00:10:27;;;;;;;0.17;0.17;;;;;;;;;;6236048;23;20058;-55
2022/06/05 00:13:14;;;;;;;2.20;0.90;;;;;;;;;;6239898;23;20012;-56
2022/06/05 00:15:40;;;;;;;0.35;0.35;;;;;;;;;;6240877;23;20054;-55
2022/06/05 00:18:05;;;;;;;0.08;0.08;;;;;;;;;;6233277;23;20095;-57
2022/06/05 00:20:31;;;;;;;0.52;0.52;;;;;;;;;;6239472;23;20015;-56
2022/06/05 00:22:57;;;;;;;0.10;0.10;;;;;;;;;;6237990;23;20070;-56
2022/06/05 00:25:23;;;;;;;1.58;1.35;;;;;;;;;;6237719;23;20103;-55
2022/06/05 00:27:49;;;;;;;0.35;0.35;;;;;;;;;;6235029;23;20008;-58
2022/06/05 00:30:21;;;;;;;0.25;0.25;;;;;;;;;;6238239;23;20022;-54
2022/06/05 00:33:02;;;;;;;1.67;0.45;;;;;;;;;;6235322;23;20039;-57
2022/06/05 00:35:33;;;;;;;0.10;0.10;;;;;;;;;;6238327;23;20016;-53
2022/06/05 00:38:09;;;;;;;0.28;0.28;;;;;;;;;;6239203;23;20008;-56
2022/06/05 00:40:37;;;;;;;0.30;0.30;;;;;;;;;;6238246;23;20019;-54
2022/06/05 00:43:06;;;;;;;0.03;0.03;;;;;;;;;;6236048;23;20020;-55
2022/06/05 00:45:32;;;;;;;0.63;0.63;;;;;;;;;;6236485;23;20016;-56
2022/06/05 00:47:57;;;;;;;0.35;0.32;;;;;;;;;;6237321;23;20569;-55
2022/06/05 00:50:27;;;;;;;0.47;0.47;;;;;;;;;;6237701;23;20024;-56
2022/06/05 00:52:55;;;;;;;0.22;0.22;;;;;;;;;;6241555;23;20008;-54
2022/06/05 00:55:21;;;;;;;1.70;0.80;;;;;;;;;;6233578;23;20008;-57
2022/06/05 00:57:47;;;;;;;0.20;0.20;;;;;;;;;;6239905;23;20008;-53
2022/06/05 01:00:13;;;;;;;0.45;0.45;;;;;;;;;;6237648;23;20027;-57
2022/06/05 01:02:43;;;;;;;0.05;0.05;;;;;;;;;;6237672;23;20461;-55
2022/06/05 01:05:09;;;;;;;1.27;0.82;;;;;;;;;;6234960;23;20027;-54
2022/06/05 01:07:34;;;;;;;0.00;0.00;;;;;;;;;;6240428;23;20059;-55
2022/06/05 01:09:59;;;;;;;0.00;0.00;;;;;;;;;;6237558;23;20035;-55
2022/06/05 01:12:43;;;;;;;0.38;0.38;;;;;;;;;;6238414;23;20024;-54
2022/06/05 01:15:18;;;;;;;0.30;0.25;;;;;;;;;;6238709;23;20012;-55
2022/06/05 01:17:52;;;;;;;0.00;0.00;;;;;;;;;;6239772;23;20279;-54
2022/06/05 01:20:32;;;;;;;0.38;0.20;;;;;;;;;;6234690;23;20047;-54
2022/06/05 01:23:06;;;;;;;0.55;0.55;;;;;;;;;;6239902;23;20042;-55
2022/06/05 01:25:33;;;;;;;0.35;0.35;;;;;;;;;;6230649;23;20036;-55
2022/06/05 01:28:04;;;;;;;0.20;0.20;;;;;;;;;;6240622;23;20032;-55
2022/06/05 01:30:31;;;;;;;0.25;0.25;;;;;;;;;;6240237;23;20015;-55
2022/06/05 01:32:57;;;;;;;1.35;0.95;;;;;;;;;;6238667;23;20027;-55
2022/06/05 01:35:27;;;;;;;1.38;0.57;;;;;;;;;;6237569;23;20028;-55
2022/06/05 01:38:06;;;;;;;0.32;0.32;;;;;;;;;;6240669;23;20015;-54
2022/06/05 01:40:36;;;;;;;2.90;0.65;;;;;;;;;;6238890;23;20030;-55
2022/06/05 01:43:04;;;;;;;0.15;0.13;;;;;;;;;;6236231;23;20038;-56
2022/06/05 01:45:35;;;;;;;1.05;1.05;;;;;;;;;;6240753;23;20015;-55
2022/06/05 01:48:02;;;;;;;0.00;0.00;;;;;;;;;;6241431;23;20124;-55
2022/06/05 01:50:31;;;;;;;3.92;0.80;;;;;;;;;;6237384;23;20239;-55
2022/06/05 01:53:03;;;;;;;0.10;0.10;;;;;;;;;;6242434;23;20091;-56
2022/06/05 01:55:28;;;;;;;1.17;0.93;;;;;;;;;;6242038;23;20388;-55
2022/06/05 01:57:56;;;;;;;0.80;0.63;;;;;;;;;;6241638;23;20015;-54
2022/06/05 02:00:22;;;;;;;0.00;0.00;;;;;;;;;;6212669;23;20012;-56
2022/06/05 02:02:53;;;;;;;0.85;0.50;;;;;;;;;;6240411;23;20065;-57
2022/06/05 02:05:22;;;;;;;0.00;0.00;;;;;;;;;;6239266;23;20012;-55
2022/06/05 02:07:48;;;;;;;0.33;0.33;;;;;;;;;;6239132;23;20020;-56
2022/06/05 02:10:16;;;;;;;0.05;0.05;;;;;;;;;;6239183;23;20038;-53
2022/06/05 02:12:42;;;;;;;1.95;1.65;;;;;;;;;;6238473;23;20483;-54
2022/06/05 02:15:07;;;;;;;1.05;1.00;;;;;;;;;;6241592;23;20039;-56
2022/06/05 02:17:34;;;;;;;0.00;0.00;;;;;;;;;;6240427;23;20015;-54
2022/06/05 02:19:59;;;;;;;0.70;0.55;;;;;;;;;;6235363;23;20038;-57
2022/06/05 02:22:27;;;;;;;1.33;0.30;;;;;;;;;;6240458;23;20024;-55
2022/06/05 02:24:55;;;;;;;1.90;0.35;;;;;;;;;;6242511;23;20008;-56
2022/06/05 02:27:21;;;;;;;0.10;0.10;;;;;;;;;;6239058;23;20076;-57
2022/06/05 02:29:46;;;;;;;0.35;0.30;;;;;;;;;;6236805;23;20043;-55
2022/06/05 02:32:30;;;;;;;0.95;0.95;;;;;;;;;;6239971;23;20008;-57
2022/06/05 02:35:01;;;;;;;0.00;0.00;;;;;;;;;;6237838;23;20018;-57
2022/06/05 02:37:45;;;;;;;0.55;0.55;;;;;;;;;;6241690;23;20244;-56
2022/06/05 02:40:10;;;;;;;0.38;0.38;;;;;;;;;;6239564;23;20102;-54
2022/06/05 02:42:48;;;;;;;0.25;0.25;;;;;;;;;;6240899;23;20016;-57
2022/06/05 02:45:19;;;;;;;0.10;0.10;;;;;;;;;;6239966;23;20099;-57
2022/06/05 02:47:47;;;;;;;0.10;0.10;;;;;;;;;;6239660;23;20074;-56
2022/06/05 02:50:17;;;;;;;0.30;0.30;;;;;;;;;;6195475;22;20032;-46
2022/06/05 02:52:42;;;;;;;0.30;0.30;;;;;;;;;;6197053;23;20031;-48
2022/06/05 02:55:10;;;;;;;1.35;1.25;;;;;;;;;;6205921;23;20402;-47
2022/06/05 02:57:35;;;;;;;1.25;0.52;;;;;;;;;;6235646;23;20092;-46
2022/06/05 03:00:01;;;;;;;0.10;0.10;;;;;;;;;;6208319;23;20012;-49
2022/06/05 03:05:10;;;;;;;0.03;0.03;;;;;;;;;;6211608;23;20020;-48
2022/06/05 03:07:35;;;;;;;0.00;0.00;;;;;;;;;;6207249;23;20017;-49
2022/06/05 03:10:01;;;;;;;0.15;0.15;;;;;;;;;;6209282;23;20005;-47
2022/06/05 03:12:26;;;;;;;1.30;1.27;;;;;;;;;;6208728;23;20020;-47
2022/06/05 03:14:56;;;;;;;0.00;0.00;;;;;;;;;;6210565;23;20118;-49
2022/06/05 03:17:21;;;;;;;;;;;;;;;;;;6209048;23;20013;-48
2022/06/05 03:19:46;;;;;;;0.47;0.47;;;;;;;;;;6213039;23;19911;-47
2022/06/05 03:22:11;;;;;;;4.43;0.95;;;;;;;;;;6179704;23;20350;-46
2022/06/05 03:24:36;;;;;;;0.65;0.57;;;;;;;;;;6201451;23;20603;-47
2022/06/05 03:27:02;;;;;;;0.90;0.88;;;;;;;;;;6208318;23;20024;-50
2022/06/05 03:29:27;;;;;;;0.38;0.38;;;;;;;;;;6208774;23;20009;-48
2022/06/05 03:31:52;;;;;;;0.08;0.08;;;;;;;;;;6208069;23;20013;-48
2022/06/05 03:34:17;;;;;;;0.15;0.15;;;;;;;;;;6210894;23;20023;-48
2022/06/05 03:36:44;;;;;;;1.13;1.02;;;;;;;;;;6195209;23;20008;-48
2022/06/05 03:39:10;;;;;;;0.73;0.38;;;;;;;;;;6211461;23;20023;-51
2022/06/05 03:41:35;;;;;;;0.98;0.90;;;;;;;;;;6208416;23;20017;-51
2022/06/05 03:44:00;;;;;;;0.05;0.05;;;;;;;;;;6211813;23;20112;-48
2022/06/05 03:46:25;;;;;;;0.30;0.20;;;;;;;;;;6209110;23;20059;-47
2022/06/05 03:48:51;;;;;;;11.43;1.88;;;;;;;;;;6211294;23;20396;-49
2022/06/05 03:51:17;;;;;;;0.55;0.55;;;;;;;;;;6207798;23;20021;-47
2022/06/05 03:53:43;;;;;;;0.10;0.10;;;;;;;;;;6207920;23;20024;-47
2022/06/05 03:56:09;;;;;;;0.52;0.52;;;;;;;;;;6208120;23;20004;-47
2022/06/05 03:58:35;;;;;;;6.05;0.90;;;;;;;;;;6209098;23;20012;-47
2022/06/05 04:01:00;;;;;;;0.13;0.13;;;;;;;;;;6234078;23;20568;-46
2022/06/05 04:03:25;;;;;;;0.55;0.55;;;;;;;;;;6239399;23;20064;-47
2022/06/05 04:05:50;;;;;;;0.15;0.15;;;;;;;;;;6239907;23;20039;-48
2022/06/05 04:08:17;;;;;;;0.70;0.63;;;;;;;;;;6211268;23;20016;-48
2022/06/05 04:10:42;;;;;;;0.20;0.20;;;;;;;;;;6239746;23;20087;-47
2022/06/05 04:13:07;;;;;;;0.10;0.10;;;;;;;;;;6240694;23;20012;-47
2022/06/05 04:15:39;;;;;;;0.65;0.55;;;;;;;;;;6240920;23;20315;-49
2022/06/05 04:18:04;;;;;;;0.17;0.10;;;;;;;;;;6241594;23;20039;-49
2022/06/05 04:20:30;;;;;;;0.10;0.10;;;;;;;;;;6237724;23;20362;-47
2022/06/05 04:22:55;;;;;;;0.00;0.00;;;;;;;;;;6240242;23;20004;-46
2022/06/05 04:25:20;;;;;;;0.30;0.30;;;;;;;;;;6238504;23;20042;-50
2022/06/05 04:27:45;;;;;;;2.35;0.10;;;;;;;;;;6242901;23;20008;-48
2022/06/05 04:30:11;;;;;;;0.00;0.00;;;;;;;;;;6237956;23;20080;-47
2022/06/05 04:32:36;;;;;;;0.03;0.03;;;;;;;;;;6241065;23;20020;-48
2022/06/05 04:35:02;;;;;;;0.60;0.15;;;;;;;;;;6239280;23;20012;-49
2022/06/05 04:37:27;;;;;;;0.10;0.10;;;;;;;;;;6241312;23;20031;-47
2022/06/05 04:39:53;;;;;;;1.45;1.17;;;;;;;;;;6238982;23;20009;-49
2022/06/05 04:42:18;;;;;;;4.85;0.43;;;;;;;;;;6239952;23;20389;-47
2022/06/05 04:44:43;;;;;;;0.28;0.20;;;;;;;;;;6237579;23;20020;-46
2022/06/05 04:47:08;;;;;;;0.00;0.00;;;;;;;;;;6241082;23;20020;-47
2022/06/05 04:49:35;;;;;;;0.30;0.30;;;;;;;;;;6236675;23;20223;-47
2022/06/05 04:52:00;;;;;;;0.00;0.00;;;;;;;;;;6239983;23;20004;-48
2022/06/05 04:54:27;;;;;;;0.00;0.00;;;;;;;;;;6236510;23;20016;-46
2022/06/05 04:56:52;;;;;;;0.15;0.15;;;;;;;;;;6241334;23;20454;-47
2022/06/05 04:59:18;;;;;;;0.10;0.10;;;;;;;;;;6238864;23;20039;-47
2022/06/05 05:01:43;;;;;;;0.10;0.10;;;;;;;;;;6238665;23;20008;-47
2022/06/05 05:04:10;;;;;;;0.20;0.20;;;;;;;;;;6240726;23;20008;-47
2022/06/05 05:06:36;;;;;;;0.28;0.28;;;;;;;;;;6242453;23;20023;-47
2022/06/05 05:09:01;;;;;;;0.05;0.05;;;;;;;;;;6215535;23;19997;-47
2022/06/05 05:11:27;;;;;;;0.00;0.00;;;;;;;;;;6239868;23;20047;-49
2022/06/05 05:13:53;;;;;;;0.40;0.40;;;;;;;;;;6243971;23;20383;-48
2022/06/05 05:16:18;;;;;;;0.30;0.30;;;;;;;;;;6239194;23;20526;-50
2022/06/05 05:18:43;;;;;;;0.10;0.10;;;;;;;;;;6242089;23;20008;-46
2022/06/05 05:21:10;;;;;;;0.00;0.00;;;;;;;;;;6212862;23;20072;-51
2022/06/05 05:23:36;;;;;;;0.55;0.55;;;;;;;;;;6212578;23;20009;-48
2022/06/05 05:26:05;;;;;;;0.00;0.00;;;;;;;;;;6221732;23;20091;-48
2022/06/05 05:28:30;;;;;;;0.00;0.00;;;;;;;;;;6242376;23;20008;-47
2022/06/05 05:30:56;;;;;;;0.20;0.20;;;;;;;;;;6239534;23;20086;-48
2022/06/05 05:33:21;;;;;;;0.52;0.40;;;;;;;;;;6240082;23;20020;-48
2022/06/05 05:35:46;;;;;;;0.10;0.10;;;;;;;;;;6242315;23;20019;-48
2022/06/05 05:38:11;;;;;;;0.00;0.00;;;;;;;;;;6241783;23;20099;-48
2022/06/05 05:43:21;;;;;;;0.00;0.00;;;;;;;;;;6243208;23;20074;-47
2022/06/05 05:45:46;;;;;;;0.00;0.00;;;;;;;;;;6242093;23;20028;-46
2022/06/05 05:48:12;;;;;;;0.40;0.40;;;;;;;;;;6239103;23;20012;-48
2022/06/05 05:50:37;;;;;;;0.00;0.00;;;;;;;;;;6243596;23;20016;-48
2022/06/05 05:53:02;;;;;;;0.00;0.00;;;;;;;;;;6239484;23;20024;-47
2022/06/05 05:55:27;;;;;;;0.03;0.03;;;;;;;;;;6238797;23;20768;-48
2022/06/05 05:57:53;;;;;;;0.00;0.00;;;;;;;;;;6242580;23;20897;-50
2022/06/05 06:00:19;;;;;;;3.53;0.63;;;;;;;;;;6239882;23;20748;-49
2022/06/05 06:02:44;;;;;;;0.00;0.00;;;;;;;;;;6240641;23;20094;-48
2022/06/05 06:05:12;;;;;;;0.65;0.47;;;;;;;;;;6243338;23;20503;-48
2022/06/05 06:07:37;;;;;;;0.43;0.43;;;;;;;;;;6239361;23;20020;-46
2022/06/05 06:10:03;;;;;;;0.32;0.32;;;;;;;;;;6242434;23;20015;-46
2022/06/05 06:12:28;;;;;;;0.47;0.47;;;;;;;;;;6241492;23;20020;-47
2022/06/05 06:14:53;;;;;;;0.00;0.00;;;;;;;;;;6239618;23;20023;-47
2022/06/05 06:17:19;;;;;;;0.00;0.00;;;;;;;;;;6243026;23;20516;-48
2022/06/05 06:19:44;;;;;;;2.17;0.88;;;;;;;;;;6239128;23;20364;-49
2022/06/05 06:22:10;;;;;;;0.08;0.08;;;;;;;;;;6241926;23;20031;-47
2022/06/05 06:24:35;;;;;;;0.15;0.15;;;;;;;;;;6241698;23;20008;-48
2022/06/05 06:27:01;;;;;;;0.98;0.20;;;;;;;;;;6242786;23;20016;-48
2022/06/05 06:29:26;;;;;;;0.20;0.20;;;;;;;;;;6238733;23;20016;-50
2022/06/05 06:31:51;;;;;;;0.22;0.22;;;;;;;;;;6244653;23;20013;-47
2022/06/05 06:34:17;;;;;;;0.68;0.68;;;;;;;;;;6238846;23;20053;-48
2022/06/05 06:36:42;;;;;;;2.92;1.10;;;;;;;;;;6240678;23;20493;-47
2022/06/05 06:39:07;;;;;;;0.00;0.00;;;;;;;;;;6240381;23;20020;-46
2022/06/05 06:41:33;;;;;;;0.70;0.32;;;;;;;;;;6241786;23;20055;-48
2022/06/05 06:43:58;;;;;;;0.20;0.20;;;;;;;;;;6240873;23;20049;-48
2022/06/05 06:46:23;;;;;;;0.00;0.00;;;;;;;;;;6240002;23;20028;-46
2022/06/05 06:48:49;;;;;;;0.10;0.10;;;;;;;;;;6242897;23;20593;-48
2022/06/05 06:51:16;;;;;;;0.00;0.00;;;;;;;;;;6238210;23;20016;-46
2022/06/05 06:53:41;;;;;;;0.40;0.40;;;;;;;;;;6239638;23;20012;-50
2022/06/05 06:56:08;;;;;;;0.05;0.05;;;;;;;;;;6240396;23;20008;-46
2022/06/05 06:58:33;;;;;;;0.00;0.00;;;;;;;;;;6242105;23;20004;-48
2022/06/05 07:00:58;;;;;;;0.00;0.00;;;;;;;;;;6237003;23;20054;-46
2022/06/05 07:03:24;;;;;;;0.63;0.63;;;;;;;;;;6242108;23;20020;-46
2022/06/05 07:05:49;;;;;;;0.00;0.00;;;;;;;;;;6239596;23;20362;-47
2022/06/05 07:08:14;;;;;;;0.10;0.10;;;;;;;;;;6239636;23;20024;-50
2022/06/05 07:10:39;;;;;;;0.00;0.00;;;;;;;;;;6240569;23;20007;-51
2022/06/05 07:13:05;;;;;;;0.00;0.00;;;;;;;;;;6240548;23;20004;-49
2022/06/05 07:15:34;;;;;;;0.63;0.63;;;;;;;;;;6237943;23;20089;-49
2022/06/05 07:18:06;;;;;;;0.38;0.38;;;;;;;;;;6241082;23;20019;-48
2022/06/05 07:20:32;;;;;;;0.00;0.00;;;;;;;;;;6240619;23;20027;-49
2022/06/05 07:22:58;;;;;;;0.00;0.00;;;;;;;;;;6240860;23;20005;-46
2022/06/05 07:25:23;;;;;;;1.55;1.10;;;;;;;;;;6236745;23;20365;-46
2022/06/05 07:27:48;;;;;;;0.03;0.03;;;;;;;;;;6241367;23;20080;-48
2022/06/05 07:30:13;;;;;;;2.47;0.55;;;;;;;;;;6240892;23;20008;-46
2022/06/05 07:32:38;;;;;;;0.28;0.28;;;;;;;;;;6240118;23;20023;-50
2022/06/05 07:35:04;;;;;;;0.70;0.70;;;;;;;;;;6213887;23;20012;-48
2022/06/05 07:37:29;;;;;;;0.00;0.00;;;;;;;;;;6240289;23;20023;-47
2022/06/05 07:39:54;;;;;;;0.05;0.05;;;;;;;;;;6238951;23;20015;-50
2022/06/05 07:42:20;;;;;;;0.00;0.00;;;;;;;;;;6240720;23;20372;-46
2022/06/05 07:44:45;;;;;;;0.00;0.00;;;;;;;;;;6239390;23;20012;-46
2022/06/05 07:47:11;;;;;;;0.38;0.38;;;;;;;;;;6240058;23;20694;-46
2022/06/05 07:49:39;;;;;;;0.00;0.00;;;;;;;;;;6240101;23;20015;-49
2022/06/05 07:54:49;;;;;;;0.10;0.10;;;;;;;;;;6239368;23;20011;-47
2022/06/05 07:57:15;;;;;;;1.00;0.85;;;;;;;;;;6238378;23;20020;-49
2022/06/05 07:59:45;;;;;;;0.28;0.28;;;;;;;;;;6239071;23;20004;-48
2022/06/05 08:02:12;;;;;;;0.00;0.00;;;;;;;;;;6239851;23;20019;-45
2022/06/05 08:04:38;;;;;;;0.57;0.57;;;;;;;;;;6239979;23;20012;-45
2022/06/05 08:07:04;;;;;;;0.38;0.38;;;;;;;;;;6213016;23;20030;-46
2022/06/05 08:09:30;;;;;;;2.38;0.80;;;;;;;;;;6240021;23;20051;-47
2022/06/05 08:11:56;;;;;;;0.47;0.47;;;;;;;;;;6239769;23;20007;-46
2022/06/05 08:14:21;;;;;;;1.75;1.08;;;;;;;;;;6239176;23;20040;-45
2022/06/05 08:16:47;;;;;;;0.00;0.00;;;;;;;;;;6236729;23;20012;-45
2022/06/05 08:19:13;;;;;;;0.10;0.10;;;;;;;;;;6240338;23;20016;-46
2022/06/05 08:21:39;;;;;;;0.00;0.00;;;;;;;;;;6240244;23;20008;-47
2022/06/05 08:24:05;;;;;;;2.20;0.88;;;;;;;;;;6242120;23;20043;-48
2022/06/05 08:26:30;;;;;;;0.75;0.75;;;;;;;;;;6237545;23;20410;-47
2022/06/05 08:28:55;;;;;;;0.00;0.00;;;;;;;;;;6242434;23;20008;-46
2022/06/05 08:31:21;;;;;;;4.82;1.40;;;;;;;;;;6212076;23;20031;-48
2022/06/05 08:33:46;;;;;;;1.55;0.88;;;;;;;;;;6241629;23;20074;-46
2022/06/05 08:36:12;;;;;;;0.00;0.00;;;;;;;;;;6237313;23;20394;-46
2022/06/05 08:41:27;;;;;;;0.28;0.28;;;;;;;;;;6240087;23;20023;-47
2022/06/05 08:43:55;;;;;;;0.20;0.20;;;;;;;;;;6237284;23;20008;-45
2022/06/05 08:46:20;;;;;;;0.00;0.00;;;;;;;;;;6239706;23;20020;-46
2022/06/05 08:48:49;;;;;;;0.50;0.50;;;;;;;;;;6238782;23;20031;-47
2022/06/05 08:51:21;;;;;;;0.30;0.30;;;;;;;;;;6238118;23;20245;-48
2022/06/05 08:53:52;;;;;;;0.43;0.43;;;;;;;;;;6240487;23;20009;-46
2022/06/05 08:56:22;;;;;;;0.35;0.20;;;;;;;;;;6238078;23;20085;-47
2022/06/05 08:58:53;;;;;;;0.22;0.22;;;;;;;;;;6240104;23;20020;-46
2022/06/05 09:01:30;;;;;;;0.13;0.13;;;;;;;;;;6239494;23;20008;-48
2022/06/05 09:03:58;;;;;;;0.00;0.00;;;;;;;;;;6238082;23;20015;-46
2022/06/05 09:06:33;;;;;;;0.03;0.03;;;;;;;;;;6240613;23;20020;-46
2022/06/05 09:08:58;;;;;;;0.10;0.10;;;;;;;;;;6238854;23;20004;-47
2022/06/05 09:11:35;;;;;;;0.43;0.28;;;;;;;;;;6238158;23;20023;-49
2022/06/05 09:14:21;;;;;;;0.28;0.28;;;;;;;;;;6241941;23;20068;-45
2022/06/05 09:16:52;;;;;;;0.17;0.17;;;;;;;;;;6231882;22;20004;-50
2022/06/05 09:19:27;;;;;;;4.38;0.10;;;;;;;;;;6238772;22;20095;-49
2022/06/05 09:21:57;;;;;;;0.15;0.15;;;;;;;;;;6239085;22;20051;-49
2022/06/05 09:24:30;;;;;;;0.00;0.00;;;;;;;;;;6238416;22;20012;-46
2022/06/05 09:26:55;;;;;;;0.10;0.10;;;;;;;;;;6241703;22;20036;-47
2022/06/05 09:29:21;;;;;;;0.10;0.10;;;;;;;;;;6236758;22;20009;-47
2022/06/05 09:31:46;;;;;;;0.10;0.10;;;;;;;;;;6242583;22;20008;-48
2022/06/05 09:34:13;;;;;;;0.65;0.65;;;;;;;;;;6235571;22;20229;-49
2022/06/05 09:36:39;;;;;;;1.15;1.13;;;;;;;;;;6242108;22;20008;-49
2022/06/05 09:39:26;;;;;;;0.17;0.17;;;;;;;;;;6235608;22;20042;-47
2022/06/05 09:42:03;;;;;;;0.70;0.70;;;;;;;;;;6242402;22;20092;-48
2022/06/05 09:44:48;;;;;;;0.00;0.00;;;;;;;;;;6233997;22;20012;-48
2022/06/05 09:47:22;;;;;;;0.52;0.13;;;;;;;;;;6239046;22;20187;-47
2022/06/05 09:49:50;;;;;;;0.00;0.00;;;;;;;;;;6245057;22;20604;-47
2022/06/05 09:52:17;;;;;;;0.45;0.45;;;;;;;;;;6269491;22;20023;-48
2022/06/05 09:54:44;;;;;;;6.40;0.50;;;;;;;;;;6273674;22;20046;-49
2022/06/05 10:00:26;;;;;;;0.80;0.35;;;;;;;;;;6271888;22;20014;-48
2022/06/05 10:02:55;;;;;;;0.00;0.00;;;;;;;;;;6273476;22;20007;-48
2022/06/05 10:05:26;;;;;;;0.00;0.00;;;;;;;;;;6269058;22;20311;-51
2022/06/05 10:07:55;;;;;;;0.20;0.10;;;;;;;;;;6275652;22;20035;-47
2022/06/05 10:10:32;;;;;;;0.00;0.00;;;;;;;;;;6270458;22;20018;-49
2022/06/05 10:13:02;;;;;;;0.00;0.00;;;;;;;;;;6273042;22;20007;-46
2022/06/05 10:15:30;;;;;;;7.88;0.90;;;;;;;;;;6272565;22;20120;-47
2022/06/05 10:17:58;;;;;;;6.88;1.20;;;;;;;;;;6271864;22;20052;-49
2022/06/05 10:20:23;;;;;;;0.15;0.15;;;;;;;;;;6271954;22;20037;-46
2022/06/05 10:22:51;;;;;;;0.00;0.00;;;;;;;;;;6268435;22;20089;-47
2022/06/05 10:25:26;;;;;;;0.00;0.00;;;;;;;;;;6272582;22;20015;-46
2022/06/05 10:27:59;;;;;;;0.00;0.00;;;;;;;;;;6271017;22;20027;-48
2022/06/05 10:30:33;;;;;;;0.45;0.45;;;;;;;;;;6272484;22;20016;-45
2022/06/05 10:33:17;;;;;;;0.00;0.00;;;;;;;;;;6269536;22;20008;-47
2022/06/05 10:35:51;;;;;;;0.10;0.10;;;;;;;;;;6274229;22;20449;-50
2022/06/05 10:38:26;;;;;;;0.98;0.45;;;;;;;;;;6271573;22;20022;-45
2022/06/05 10:40:53;;;;;;;0.00;0.00;;;;;;;;;;6270195;22;20031;-46
2022/06/05 10:43:24;;;;;;;0.85;0.85;;;;;;;;;;6269338;22;20058;-48
2022/06/05 10:45:51;;;;;;;0.30;0.30;;;;;;;;;;6270421;22;20026;-46
2022/06/05 10:48:35;;;;;;;0.10;0.10;;;;;;;;;;6271935;22;20431;-48
2022/06/05 10:51:12;;;;;;;0.00;0.00;;;;;;;;;;6270459;22;20022;-48
2022/06/05 10:53:43;;;;;;;0.32;0.22;;;;;;;;;;6271913;22;20042;-47
2022/06/05 10:56:24;;;;;;;0.00;0.00;;;;;;;;;;6271279;22;20012;-46
2022/06/05 10:58:53;;;;;;;0.52;0.52;;;;;;;;;;6268674;22;20366;-48
2022/06/05 11:01:23;;;;;;;0.65;0.65;;;;;;;;;;6271993;22;20016;-49
2022/06/05 11:04:09;;;;;;;1.48;1.38;;;;;;;;;;6268373;22;20008;-49
2022/06/05 11:06:42;;;;;;;1.10;0.57;;;;;;;;;;6272223;22;21108;-47
2022/06/05 11:09:31;;;;;;;0.13;0.13;;;;;;;;;;6270640;22;20278;-47
2022/06/05 11:15:02;;;;;;;0.00;0.00;;;;;;;;;;6272092;22;20011;-48
2022/06/05 11:17:46;;;;;;;0.10;0.10;;;;;;;;;;6268058;22;20022;-48
2022/06/05 11:20:14;;;;;;;0.20;0.20;;;;;;;;;;6270490;22;20093;-46
2022/06/05 11:22:59;;;;;;;0.75;0.75;;;;;;;;;;6270768;22;20071;-51
2022/06/05 11:25:25;;;;;;;1.05;1.05;;;;;;;;;;6244179;22;20016;-46
2022/06/05 11:27:54;;;;;;;1.02;0.88;;;;;;;;;;6244312;22;20030;-47
2022/06/05 11:30:25;;;;;;;0.10;0.10;;;;;;;;;;6269408;22;20011;-51
2022/06/05 11:33:01;;;;;;;0.80;0.80;;;;;;;;;;6271173;22;20356;-50
2022/06/05 11:35:33;;;;;;;0.28;0.28;;;;;;;;;;6245653;22;20012;-47
2022/06/05 11:37:58;;;;;;;0.40;0.40;;;;;;;;;;6272318;22;20063;-48
2022/06/05 11:40:29;;;;;;;0.98;0.98;;;;;;;;;;6269732;22;20012;-48
2022/06/05 11:43:06;;;;;;;0.03;0.03;;;;;;;;;;6268751;22;20035;-48
2022/06/05 11:45:32;;;;;;;0.80;0.40;;;;;;;;;;6272175;22;20016;-46
2022/06/05 11:48:19;;;;;;;0.63;0.63;;;;;;;;;;6271002;22;20011;-47
2022/06/05 11:50:49;;;;;;;0.08;0.08;;;;;;;;;;6270778;22;20302;-48
2022/06/05 11:53:24;;;;;;;0.10;0.10;;;;;;;;;;6271539;22;20015;-46
2022/06/05 11:55:53;;;;;;;1.08;1.08;;;;;;;;;;6251497;22;20035;-46
2022/06/05 11:58:18;;;;;;;;;;;;;;;;;;6269095;22;20007;-48
2022/06/05 12:00:47;;;;;;;0.82;0.25;;;;;;;;;;6270835;22;19910;-46
2022/06/05 12:03:31;;;;;;;0.20;0.20;;;;;;;;;;6241830;22;20025;-46
2022/06/05 12:05:56;;;;;;;0.00;0.00;;;;;;;;;;6269462;22;20027;-49
2022/06/05 12:08:24;;;;;;;0.40;0.40;;;;;;;;;;6244346;22;20037;-46
2022/06/05 12:11:09;;;;;;;0.00;0.00;;;;;;;;;;6271912;22;20069;-46
2022/06/05 12:13:54;;;;;;;1.63;1.55;;;;;;;;;;6269393;22;20008;-48
2022/06/05 12:16:25;;;;;;;0.43;0.40;;;;;;;;;;6267680;22;20015;-49
2022/06/05 12:18:56;;;;;;;0.60;0.60;;;;;;;;;;6271799;22;20027;-46
2022/06/05 12:21:29;;;;;;;0.80;0.30;;;;;;;;;;6268075;22;20008;-49
2022/06/05 12:24:00;;;;;;;0.00;0.00;;;;;;;;;;6268788;22;20546;-49
2022/06/05 12:26:44;;;;;;;0.00;0.00;;;;;;;;;;6268281;22;20058;-46
2022/06/05 12:29:15;;;;;;;0.20;0.20;;;;;;;;;;6268811;22;20015;-50
2022/06/05 12:31:46;;;;;;;0.73;0.73;;;;;;;;;;6268978;22;20008;-48
2022/06/05 12:34:31;;;;;;;3.20;1.27;;;;;;;;;;6270417;22;20015;-48
2022/06/05 12:37:05;;;;;;;0.00;0.00;;;;;;;;;;6243048;22;20000;-46
2022/06/05 12:39:40;;;;;;;0.00;0.00;;;;;;;;;;6272326;22;20014;-48
2022/06/05 12:42:09;;;;;;;0.00;0.00;;;;;;;;;;6243406;22;20020;-46
2022/06/05 12:44:41;;;;;;;0.43;0.43;;;;;;;;;;6242955;22;20012;-48
2022/06/05 12:47:25;;;;;;;0.45;0.45;;;;;;;;;;6271297;22;20035;-46
2022/06/05 12:50:00;;;;;;;1.35;0.10;;;;;;;;;;6266815;22;20208;-46
2022/06/05 12:52:38;;;;;;;0.65;0.65;;;;;;;;;;6269822;22;20505;-46
2022/06/05 12:55:24;;;;;;;0.00;0.00;;;;;;;;;;6269997;22;20046;-47
2022/06/05 12:57:49;;;;;;;0.25;0.25;;;;;;;;;;6268302;22;20012;-47
2022/06/05 13:00:30;;;;;;;0.47;0.47;;;;;;;;;;6243044;22;20057;-48
2022/06/05 13:02:56;;;;;;;0.80;0.80;;;;;;;;;;6266845;22;20046;-48
2022/06/05 13:05:26;;;;;;;0.17;0.17;;;;;;;;;;6270755;22;20012;-47
2022/06/05 13:07:52;;;;;;;0.30;0.30;;;;;;;;;;6262427;22;20342;-46
2022/06/05 13:10:26;;;;;;;0.22;0.22;;;;;;;;;;6268206;22;20064;-46
2022/06/05 13:13:14;;;;;;;3.63;0.82;;;;;;;;;;6267075;22;20007;-48
2022/06/05 13:15:45;;;;;;;0.10;0.10;;;;;;;;;;6267203;22;20023;-50
2022/06/05 13:18:19;;;;;;;0.82;0.82;;;;;;;;;;6269499;22;20022;-46
2022/06/05 13:21:04;;;;;;;0.00;0.00;;;;;;;;;;6268531;22;20034;-47
2022/06/05 13:23:36;;;;;;;0.38;0.38;;;;;;;;;;6267109;22;20019;-49
2022/06/05 13:26:06;;;;;;;1.05;0.35;;;;;;;;;;6244776;22;20027;-46
2022/06/05 13:28:31;;;;;;;;;;;;;;;;;;6238893;22;20034;-46
2022/06/05 13:31:04;;;;;;;0.57;0.30;;;;;;;;;;6272676;22;19927;-49
2022/06/05 13:33:39;;;;;;;1.08;0.93;;;;;;;;;;6270434;22;20018;-49
2022/06/05 13:36:09;;;;;;;0.55;0.55;;;;;;;;;;6270913;22;20023;-47
2022/06/05 13:38:42;;;;;;;0.43;0.43;;;;;;;;;;6267560;22;20016;-46
2022/06/05 13:41:19;;;;;;;0.10;0.10;;;;;;;;;;6273125;22;20058;-46
2022/06/05 13:43:50;;;;;;;0.15;0.15;;;;;;;;;;6267703;22;20004;-48
2022/06/05 13:46:15;;;;;;;0.13;0.13;;;;;;;;;;6271361;22;20030;-48
2022/06/05 13:48:50;;;;;;;0.52;0.52;;;;;;;;;;6269406;22;20035;-47
2022/06/05 13:51:32;;;;;;;0.00;0.00;;;;;;;;;;6268421;22;20031;-48
2022/06/05 13:54:01;;;;;;;1.77;0.40;;;;;;;;;;6271667;22;20011;-47
2022/06/05 13:56:49;;;;;;;1.08;1.08;;;;;;;;;;6268817;22;20110;-49
2022/06/05 13:59:35;;;;;;;0.55;0.22;;;;;;;;;;6224586;22;20012;-50
2022/06/05 14:02:03;;;;;;;0.00;0.00;;;;;;;;;;6245895;22;20004;-48
2022/06/05 14:04:28;;;;;;;0.03;0.00;;;;;;;;;;6271626;22;20043;-47
2022/06/05 14:07:02;;;;;;;0.17;0.17;;;;;;;;;;6246579;22;20333;-46
2022/06/05 14:09:39;;;;;;;1.20;1.02;;;;;;;;;;6267167;22;20043;-51
2022/06/05 14:12:07;;;;;;;0.20;0.20;;;;;;;;;;6270919;22;20011;-47
2022/06/05 14:14:35;;;;;;;2.08;0.70;;;;;;;;;;6270997;22;20089;-47
2022/06/05 14:17:00;;;;;;;0.00;0.00;;;;;;;;;;6270824;22;20011;-48
2022/06/05 14:19:28;;;;;;;0.40;0.40;;;;;;;;;;6271382;22;20027;-46
2022/06/05 14:22:00;;;;;;;0.30;0.30;;;;;;;;;;6270094;22;20012;-49
2022/06/05 14:24:27;;;;;;;0.63;0.50;;;;;;;;;;6241985;22;20038;-48
2022/06/05 14:26:55;;;;;;;2.00;1.35;;;;;;;;;;6266886;22;20031;-49
2022/06/05 14:29:24;;;;;;;0.35;0.30;;;;;;;;;;6271013;22;20008;-50
2022/06/05 14:31:59;;;;;;;0.20;0.20;;;;;;;;;;6269920;22;20551;-48
2022/06/05 14:34:29;;;;;;;1.48;0.30;;;;;;;;;;6271754;22;20125;-47
2022/06/05 14:37:04;;;;;;;0.10;0.10;;;;;;;;;;6243516;22;20012;-46
2022/06/05 14:39:35;;;;;;;0.15;0.15;;;;;;;;;;6243944;22;20011;-46
2022/06/05 14:42:15;;;;;;;0.10;0.10;;;;;;;;;;6269261;22;20350;-48
2022/06/05 14:44:42;;;;;;;0.50;0.50;;;;;;;;;;6268583;22;20018;-48
2022/06/05 14:47:26;;;;;;;1.67;0.57;;;;;;;;;;6270742;22;20030;-47
2022/06/05 14:49:56;;;;;;;0.00;0.00;;;;;;;;;;6267545;22;20016;-49
2022/06/05 14:52:27;;;;;;;0.75;0.75;;;;;;;;;;6252447;22;20417;-46
2022/06/05 14:58:01;;;;;;;0.10;0.10;;;;;;;;;;6270862;22;20014;-49
2022/06/05 15:00:39;;;;;;;0.10;0.10;;;;;;;;;;6270216;22;20019;-49
2022/06/05 15:03:08;;;;;;;0.00;0.00;;;;;;;;;;6270898;22;20026;-50
2022/06/05 15:05:38;;;;;;;0.90;0.55;;;;;;;;;;6240809;22;20153;-47
2022/06/05 15:08:08;;;;;;;0.03;0.03;;;;;;;;;;6238564;23;20106;-49
2022/06/05 15:10:43;;;;;;;0.00;0.00;;;;;;;;;;6241856;23;20183;-49
2022/06/05 15:13:31;;;;;;;0.20;0.20;;;;;;;;;;6233665;23;20027;-50
2022/06/05 15:16:08;;;;;;;1.17;1.08;;;;;;;;;;6241787;23;20054;-49
2022/06/05 15:18:34;;;;;;;1.00;1.00;;;;;;;;;;6238706;23;20035;-47